sensor_id;sensor_type;location;lat;lon;timestamp;pressure;altitude;pressure_sealevel;temperature;humidity
40315;BME280;26021;45.640;11.302;2023-07-20T00:00:25;98293.47;;;22.43;100.00
40315;BME280;26021;45.640;11.302;2023-07-20T00:02:51;98299.91;;;22.27;100.00
40315;BME280;26021;45.640;11.302;2023-07-20T00:05:17;98260.06;;;22.06;100.00
40315;BME280;26021;45.640;11.302;2023-07-20T00:07:47;98273.75;;;22.26;100.00
40315;BME280;26021;45.640;11.302;2023-07-20T00:10:13;98273.75;;;22.26;100.00
40315;BME280;26021;45.640;11.302;2023-07-20T00:12:38;98265.53;;;22.16;100.00
40315;BME280;26021;45.640;11.302;2023-07-20T00:15:04;98217.97;;;21.76;100.00
40315;BME280;26021;45.640;11.302;2023-07-20T00:17:30;98245.06;;;22.03;100.00
40315;BME280;26021;45.640;11.302;2023-07-20T00:19:55;98247.44;;;21.95;100.00
40315;BME280;26021;45.640;11.302;2023-07-20T00:22:21;98231.63;;;21.86;100.00
40315;BME280;26021;45.640;11.302;2023-07-20T00:24:46;98211.97;;;21.79;100.00
40315;BME280;26021;45.640;11.302;2023-07-20T00:27:11;98205.47;;;21.80;100.00
40315;BME280;26021;45.640;11.302;2023-07-20T00:29:37;98220.44;;;21.83;100.00
40315;BME280;26021;45.640;11.302;2023-07-20T00:32:03;98232.97;;;21.84;100.00
40315;BME280;26021;45.640;11.302;2023-07-20T00:34:30;98223.63;;;21.70;100.00
40315;BME280;26021;45.640;11.302;2023-07-20T00:36:56;98213.94;;;21.47;100.00
40315;BME280;26021;45.640;11.302;2023-07-20T00:39:21;98238.59;;;21.30;100.00
40315;BME280;26021;45.640;11.302;2023-07-20T00:41:47;98238.38;;;21.37;100.00
40315;BME280;26021;45.640;11.302;2023-07-20T00:44:12;98257.84;;;21.55;100.00
40315;BME280;26021;45.640;11.302;2023-07-20T00:46:38;98271.91;;;21.47;100.00
40315;BME280;26021;45.640;11.302;2023-07-20T00:49:04;98291.72;;;21.43;100.00
40315;BME280;26021;45.640;11.302;2023-07-20T00:51:29;98306.06;;;21.65;100.00
40315;BME280;26021;45.640;11.302;2023-07-20T00:53:55;98289.84;;;21.80;100.00
40315;BME280;26021;45.640;11.302;2023-07-20T00:56:21;98273.38;;;21.60;100.00
40315;BME280;26021;45.640;11.302;2023-07-20T00:58:47;98272.63;;;21.70;100.00
40315;BME280;26021;45.640;11.302;2023-07-20T01:01:12;98281.97;;;21.84;100.00
40315;BME280;26021;45.640;11.302;2023-07-20T01:03:39;98291.56;;;21.97;100.00
40315;BME280;26021;45.640;11.302;2023-07-20T01:09:18;98298.66;;;21.98;100.00
40315;BME280;26021;45.640;11.302;2023-07-20T01:12:13;98302.41;;;21.86;100.00
40315;BME280;26021;45.640;11.302;2023-07-20T01:14:42;98317.63;;;21.82;100.00
40315;BME280;26021;45.640;11.302;2023-07-20T01:17:08;98326.31;;;21.79;100.00
40315;BME280;26021;45.640;11.302;2023-07-20T01:19:33;98312.44;;;21.81;100.00
40315;BME280;26021;45.640;11.302;2023-07-20T01:25:07;98245.81;;;21.19;100.00
40315;BME280;26021;45.640;11.302;2023-07-20T01:33:34;98263.91;;;21.68;100.00
40315;BME280;26021;45.640;11.302;2023-07-20T01:36:01;98143.31;;;21.20;100.00
40315;BME280;26021;45.640;11.302;2023-07-20T01:38:28;98246.03;;;21.82;100.00
40315;BME280;26021;45.640;11.302;2023-07-20T01:40:54;98261.03;;;21.89;100.00
40315;BME280;26021;45.640;11.302;2023-07-20T01:43:20;98260.13;;;21.74;100.00
40315;BME280;26021;45.640;11.302;2023-07-20T01:45:45;98283.03;;;21.78;100.00
40315;BME280;26021;45.640;11.302;2023-07-20T01:50:37;98280.25;;;21.73;100.00
40315;BME280;26021;45.640;11.302;2023-07-20T01:53:02;98282.56;;;21.54;100.00
40315;BME280;26021;45.640;11.302;2023-07-20T01:55:28;98281.03;;;21.63;100.00
40315;BME280;26021;45.640;11.302;2023-07-20T01:57:55;98272.28;;;21.61;100.00
40315;BME280;26021;45.640;11.302;2023-07-20T02:00:20;98261.31;;;21.51;100.00
40315;BME280;26021;45.640;11.302;2023-07-20T02:02:49;98263.50;;;21.54;100.00
40315;BME280;26021;45.640;11.302;2023-07-20T02:05:14;98263.28;;;21.55;100.00
40315;BME280;26021;45.640;11.302;2023-07-20T02:07:40;98238.09;;;21.38;100.00
40315;BME280;26021;45.640;11.302;2023-07-20T02:12:31;98263.84;;;21.58;100.00
40315;BME280;26021;45.640;11.302;2023-07-20T02:14:56;98242.50;;;21.44;100.00
40315;BME280;26021;45.640;11.302;2023-07-20T02:17:22;98242.50;;;21.44;100.00
40315;BME280;26021;45.640;11.302;2023-07-20T02:19:50;98240.34;;;21.46;100.00
40315;BME280;26021;45.640;11.302;2023-07-20T02:22:16;98194.22;;;21.24;100.00
40315;BME280;26021;45.640;11.302;2023-07-20T02:24:42;98219.66;;;21.45;100.00
40315;BME280;26021;45.640;11.302;2023-07-20T02:27:07;98217.19;;;21.44;100.00
40315;BME280;26021;45.640;11.302;2023-07-20T02:29:33;98230.25;;;21.42;100.00
40315;BME280;26021;45.640;11.302;2023-07-20T02:31:59;98226.84;;;21.24;100.00
40315;BME280;26021;45.640;11.302;2023-07-20T02:34:24;98230.44;;;21.30;100.00
40315;BME280;26021;45.640;11.302;2023-07-20T02:36:50;98228.34;;;21.42;100.00
40315;BME280;26021;45.640;11.302;2023-07-20T02:39:15;98231.88;;;21.43;100.00
40315;BME280;26021;45.640;11.302;2023-07-20T02:41:41;98225.13;;;21.50;100.00
40315;BME280;26021;45.640;11.302;2023-07-20T02:44:06;98213.00;;;21.26;100.00
40315;BME280;26021;45.640;11.302;2023-07-20T02:46:32;98159.88;;;20.81;100.00
40315;BME280;26021;45.640;11.302;2023-07-20T02:48:58;98219.97;;;21.17;100.00
40315;BME280;26021;45.640;11.302;2023-07-20T02:51:23;98222.81;;;21.32;100.00
40315;BME280;26021;45.640;11.302;2023-07-20T02:53:48;98179.44;;;21.15;100.00
40315;BME280;26021;45.640;11.302;2023-07-20T02:56:14;98143.72;;;21.02;100.00
40315;BME280;26021;45.640;11.302;2023-07-20T02:58:41;98193.50;;;21.39;100.00
40315;BME280;26021;45.640;11.302;2023-07-20T03:01:11;98200.63;;;21.13;100.00
40315;BME280;26021;45.640;11.302;2023-07-20T03:03:37;98200.38;;;21.15;100.00
40315;BME280;26021;45.640;11.302;2023-07-20T03:06:06;98217.13;;;21.34;100.00
40315;BME280;26021;45.640;11.302;2023-07-20T03:08:34;98210.84;;;21.28;100.00
40315;BME280;26021;45.640;11.302;2023-07-20T03:10:59;98197.53;;;21.32;100.00
40315;BME280;26021;45.640;11.302;2023-07-20T03:13:24;98191.44;;;21.19;100.00
40315;BME280;26021;45.640;11.302;2023-07-20T03:15:52;98175.50;;;20.96;100.00
40315;BME280;26021;45.640;11.302;2023-07-20T03:18:17;98170.78;;;20.86;100.00
40315;BME280;26021;45.640;11.302;2023-07-20T03:20:43;98187.72;;;20.93;100.00
40315;BME280;26021;45.640;11.302;2023-07-20T03:23:08;98193.56;;;21.12;100.00
40315;BME280;26021;45.640;11.302;2023-07-20T03:25:34;98190.84;;;21.12;100.00
40315;BME280;26021;45.640;11.302;2023-07-20T03:28:02;98190.09;;;21.22;100.00
40315;BME280;26021;45.640;11.302;2023-07-20T03:30:28;98191.50;;;20.92;100.00
40315;BME280;26021;45.640;11.302;2023-07-20T03:32:53;98206.56;;;20.78;100.00
40315;BME280;26021;45.640;11.302;2023-07-20T03:35:19;98208.72;;;20.76;100.00
40315;BME280;26021;45.640;11.302;2023-07-20T03:37:44;98196.13;;;20.92;100.00
40315;BME280;26021;45.640;11.302;2023-07-20T03:40:10;98197.31;;;21.06;100.00
40315;BME280;26021;45.640;11.302;2023-07-20T03:42:35;98191.59;;;21.03;100.00
40315;BME280;26021;45.640;11.302;2023-07-20T03:45:01;98156.94;;;20.88;100.00
40315;BME280;26021;45.640;11.302;2023-07-20T03:47:28;98171.13;;;20.95;100.00
40315;BME280;26021;45.640;11.302;2023-07-20T03:49:54;98186.44;;;21.06;100.00
40315;BME280;26021;45.640;11.302;2023-07-20T03:52:19;98187.03;;;21.13;100.00
40315;BME280;26021;45.640;11.302;2023-07-20T03:54:44;98194.38;;;21.13;100.00
40315;BME280;26021;45.640;11.302;2023-07-20T03:57:10;98195.31;;;21.23;100.00
40315;BME280;26021;45.640;11.302;2023-07-20T03:59:37;98200.25;;;21.32;100.00
40315;BME280;26021;45.640;11.302;2023-07-20T04:02:02;98213.00;;;21.26;100.00
40315;BME280;26021;45.640;11.302;2023-07-20T04:04:28;98187.59;;;21.15;100.00
40315;BME280;26021;45.640;11.302;2023-07-20T04:06:53;98199.94;;;21.28;100.00
40315;BME280;26021;45.640;11.302;2023-07-20T04:09:19;98201.19;;;21.15;100.00
40315;BME280;26021;45.640;11.302;2023-07-20T04:11:44;98196.84;;;21.14;100.00
40315;BME280;26021;45.640;11.302;2023-07-20T04:14:09;98200.16;;;21.21;100.00
40315;BME280;26021;45.640;11.302;2023-07-20T04:16:35;98199.72;;;21.35;100.00
40315;BME280;26021;45.640;11.302;2023-07-20T04:19:00;98210.31;;;21.31;100.00
40315;BME280;26021;45.640;11.302;2023-07-20T04:21:27;98201.03;;;21.27;100.00
40315;BME280;26021;45.640;11.302;2023-07-20T04:23:52;98213.56;;;21.28;100.00
40315;BME280;26021;45.640;11.302;2023-07-20T04:26:18;98211.03;;;21.21;100.00
40315;BME280;26021;45.640;11.302;2023-07-20T04:28:43;98213.16;;;21.14;100.00
40315;BME280;26021;45.640;11.302;2023-07-20T04:31:10;98213.94;;;21.10;100.00
40315;BME280;26021;45.640;11.302;2023-07-20T04:33:39;98207.91;;;21.03;100.00
40315;BME280;26021;45.640;11.302;2023-07-20T04:36:05;98212.88;;;21.16;100.00
40315;BME280;26021;45.640;11.302;2023-07-20T04:38:31;98220.50;;;21.14;100.00
40315;BME280;26021;45.640;11.302;2023-07-20T04:40:56;98185.31;;;21.02;100.00
40315;BME280;26021;45.640;11.302;2023-07-20T04:43:22;98147.88;;;20.77;100.00
40315;BME280;26021;45.640;11.302;2023-07-20T04:45:47;98173.78;;;20.85;100.00
40315;BME280;26021;45.640;11.302;2023-07-20T04:48:14;98221.78;;;21.38;100.00
40315;BME280;26021;45.640;11.302;2023-07-20T04:50:41;98227.78;;;21.40;100.00
40315;BME280;26021;45.640;11.302;2023-07-20T04:53:08;98227.19;;;21.33;100.00
40315;BME280;26021;45.640;11.302;2023-07-20T04:55:35;98221.31;;;21.14;100.00
40315;BME280;26021;45.640;11.302;2023-07-20T04:58:02;98106.34;;;20.50;100.00
40315;BME280;26021;45.640;11.302;2023-07-20T05:00:29;98219.34;;;21.05;100.00
40315;BME280;26021;45.640;11.302;2023-07-20T05:02:55;98168.63;;;20.88;100.00
40315;BME280;26021;45.640;11.302;2023-07-20T05:05:21;98220.09;;;21.32;100.00
40315;BME280;26021;45.640;11.302;2023-07-20T05:07:46;98205.16;;;21.35;100.00
40315;BME280;26021;45.640;11.302;2023-07-20T05:10:12;98219.34;;;21.42;100.00
40315;BME280;26021;45.640;11.302;2023-07-20T05:12:37;98222.59;;;21.39;100.00
40315;BME280;26021;45.640;11.302;2023-07-20T05:15:03;98216.50;;;21.59;100.00
40315;BME280;26021;45.640;11.302;2023-07-20T05:17:29;98213.00;;;21.68;100.00
40315;BME280;26021;45.640;11.302;2023-07-20T05:19:55;98176.97;;;21.51;100.00
40315;BME280;26021;45.640;11.302;2023-07-20T05:22:20;98216.09;;;21.87;100.00
40315;BME280;26021;45.640;11.302;2023-07-20T05:24:46;98209.59;;;21.93;100.00
40315;BME280;26021;45.640;11.302;2023-07-20T05:27:11;98204.78;;;22.10;100.00
40315;BME280;26021;45.640;11.302;2023-07-20T05:29:37;98202.66;;;22.28;100.00
40315;BME280;26021;45.640;11.302;2023-07-20T05:32:03;98194.28;;;22.34;100.00
40315;BME280;26021;45.640;11.302;2023-07-20T05:34:29;98214.75;;;22.57;100.00
40315;BME280;26021;45.640;11.302;2023-07-20T05:36:55;98206.31;;;22.69;100.00
40315;BME280;26021;45.640;11.302;2023-07-20T05:39:20;98221.06;;;22.78;100.00
40315;BME280;26021;45.640;11.302;2023-07-20T05:41:45;98221.09;;;22.83;100.00
40315;BME280;26021;45.640;11.302;2023-07-20T05:44:11;98208.81;;;22.86;100.00
40315;BME280;26021;45.640;11.302;2023-07-20T05:46:36;98133.53;;;22.34;100.00
40315;BME280;26021;45.640;11.302;2023-07-20T05:49:02;98227.66;;;22.97;100.00
40315;BME280;26021;45.640;11.302;2023-07-20T05:51:27;98233.69;;;23.04;100.00
40315;BME280;26021;45.640;11.302;2023-07-20T05:53:53;98223.03;;;23.23;100.00
40315;BME280;26021;45.640;11.302;2023-07-20T05:56:18;98172.03;;;23.19;100.00
40315;BME280;26021;45.640;11.302;2023-07-20T05:58:44;98216.97;;;23.82;100.00
40315;BME280;26021;45.640;11.302;2023-07-20T06:01:09;98224.25;;;24.07;100.00
40315;BME280;26021;45.640;11.302;2023-07-20T06:03:35;98219.25;;;24.24;100.00
40315;BME280;26021;45.640;11.302;2023-07-20T06:06:01;98227.75;;;24.23;100.00
40315;BME280;26021;45.640;11.302;2023-07-20T06:08:34;98172.78;;;23.55;100.00
40315;BME280;26021;45.640;11.302;2023-07-20T06:10:59;98219.72;;;23.62;100.00
40315;BME280;26021;45.640;11.302;2023-07-20T06:13:25;98229.53;;;23.73;100.00
40315;BME280;26021;45.640;11.302;2023-07-20T06:15:50;98201.72;;;23.51;100.00
40315;BME280;26021;45.640;11.302;2023-07-20T06:18:16;98222.16;;;23.84;100.00
40315;BME280;26021;45.640;11.302;2023-07-20T06:20:41;98209.84;;;23.76;100.00
40315;BME280;26021;45.640;11.302;2023-07-20T06:23:07;98238.28;;;23.80;100.00
40315;BME280;26021;45.640;11.302;2023-07-20T06:25:32;98230.84;;;23.96;100.00
40315;BME280;26021;45.640;11.302;2023-07-20T06:27:58;98177.81;;;24.07;100.00
40315;BME280;26021;45.640;11.302;2023-07-20T06:30:24;98240.28;;;24.83;100.00
40315;BME280;26021;45.640;11.302;2023-07-20T06:32:49;98190.00;;;24.79;100.00
40315;BME280;26021;45.640;11.302;2023-07-20T06:35:15;98225.59;;;25.13;100.00
40315;BME280;26021;45.640;11.302;2023-07-20T06:37:41;98241.22;;;25.08;100.00
40315;BME280;26021;45.640;11.302;2023-07-20T06:40:07;98228.47;;;25.32;100.00
40315;BME280;26021;45.640;11.302;2023-07-20T06:42:34;98230.34;;;25.37;100.00
40315;BME280;26021;45.640;11.302;2023-07-20T06:45:00;98171.88;;;25.22;100.00
40315;BME280;26021;45.640;11.302;2023-07-20T06:47:26;98229.72;;;25.74;100.00
40315;BME280;26021;45.640;11.302;2023-07-20T06:49:51;98233.34;;;25.64;100.00
40315;BME280;26021;45.640;11.302;2023-07-20T06:52:17;98237.72;;;25.94;100.00
40315;BME280;26021;45.640;11.302;2023-07-20T06:54:42;98232.59;;;25.58;100.00
40315;BME280;26021;45.640;11.302;2023-07-20T06:57:08;98236.50;;;25.52;100.00
40315;BME280;26021;45.640;11.302;2023-07-20T06:59:33;98218.38;;;24.88;100.00
40315;BME280;26021;45.640;11.302;2023-07-20T07:01:59;98242.16;;;25.32;100.00
40315;BME280;26021;45.640;11.302;2023-07-20T07:04:24;98242.94;;;25.67;100.00
40315;BME280;26021;45.640;11.302;2023-07-20T07:06:50;98245.06;;;25.75;100.00
40315;BME280;26021;45.640;11.302;2023-07-20T07:09:15;98242.59;;;25.73;100.00
40315;BME280;26021;45.640;11.302;2023-07-20T07:11:41;98216.28;;;26.01;100.00
40315;BME280;26021;45.640;11.302;2023-07-20T07:14:06;98246.84;;;26.56;100.00
40315;BME280;26021;45.640;11.302;2023-07-20T07:16:32;98249.59;;;26.75;100.00
40315;BME280;26021;45.640;11.302;2023-07-20T07:18:57;98248.91;;;26.88;100.00
40315;BME280;26021;45.640;11.302;2023-07-20T07:21:23;98251.41;;;27.22;100.00
40315;BME280;26021;45.640;11.302;2023-07-20T07:23:49;98246.72;;;27.22;100.00
40315;BME280;26021;45.640;11.302;2023-07-20T07:26:14;98249.69;;;27.26;100.00
40315;BME280;26021;45.640;11.302;2023-07-20T07:28:40;98244.94;;;27.32;100.00
40315;BME280;26021;45.640;11.302;2023-07-20T07:31:06;98250.84;;;27.39;100.00
40315;BME280;26021;45.640;11.302;2023-07-20T07:33:32;98254.53;;;27.48;92.29
40315;BME280;26021;45.640;11.302;2023-07-20T07:35:57;98254.84;;;27.46;93.10
40315;BME280;26021;45.640;11.302;2023-07-20T07:38:23;98198.00;;;27.14;91.76
40315;BME280;26021;45.640;11.302;2023-07-20T07:40:48;98255.69;;;27.28;95.71
40315;BME280;26021;45.640;11.302;2023-07-20T07:43:14;98250.53;;;27.40;96.91
40315;BME280;26021;45.640;11.302;2023-07-20T07:45:39;98195.97;;;27.52;100.00
40315;BME280;26021;45.640;11.302;2023-07-20T07:48:06;98143.34;;;27.45;90.37
40315;BME280;26021;45.640;11.302;2023-07-20T07:50:32;98260.16;;;27.89;89.69
40315;BME280;26021;45.640;11.302;2023-07-20T07:52:58;98256.78;;;27.78;89.07
40315;BME280;26021;45.640;11.302;2023-07-20T07:55:24;98218.31;;;27.46;90.99
40315;BME280;26021;45.640;11.302;2023-07-20T07:57:52;98258.84;;;28.14;88.15
40315;BME280;26021;45.640;11.302;2023-07-20T08:00:18;98251.63;;;28.04;86.31
40315;BME280;26021;45.640;11.302;2023-07-20T08:02:45;98259.19;;;28.26;89.76
40315;BME280;26021;45.640;11.302;2023-07-20T08:05:12;98251.25;;;28.38;83.81
40315;BME280;26021;45.640;11.302;2023-07-20T08:07:37;98258.63;;;28.65;86.30
40315;BME280;26021;45.640;11.302;2023-07-20T08:10:03;98260.72;;;28.82;89.76
40315;BME280;26021;45.640;11.302;2023-07-20T08:12:29;98256.84;;;28.97;84.83
40315;BME280;26021;45.640;11.302;2023-07-20T08:14:54;98244.31;;;28.91;80.14
40315;BME280;26021;45.640;11.302;2023-07-20T08:17:20;98248.72;;;28.78;82.42
40315;BME280;26021;45.640;11.302;2023-07-20T08:19:46;98237.31;;;28.71;80.69
40315;BME280;26021;45.640;11.302;2023-07-20T08:22:11;98265.16;;;29.19;81.35
40315;BME280;26021;45.640;11.302;2023-07-20T08:24:40;98259.41;;;28.93;70.28
40315;BME280;26021;45.640;11.302;2023-07-20T08:27:07;98263.47;;;28.96;74.31
40315;BME280;26021;45.640;11.302;2023-07-20T08:29:32;98243.84;;;28.75;69.46
40315;BME280;26021;45.640;11.302;2023-07-20T08:31:58;98257.66;;;28.97;70.60
40315;BME280;26021;45.640;11.302;2023-07-20T08:34:23;98258.88;;;29.27;70.97
40315;BME280;26021;45.640;11.302;2023-07-20T08:36:48;98251.47;;;28.78;63.73
40315;BME280;26021;45.640;11.302;2023-07-20T08:39:14;98238.03;;;28.76;68.69
40315;BME280;26021;45.640;11.302;2023-07-20T08:41:42;98229.00;;;28.98;65.88
40315;BME280;26021;45.640;11.302;2023-07-20T08:44:09;98207.28;;;28.97;64.41
40315;BME280;26021;45.640;11.302;2023-07-20T08:46:35;98221.59;;;29.21;61.99
40315;BME280;26021;45.640;11.302;2023-07-20T08:49:00;98266.53;;;29.53;64.68
40315;BME280;26021;45.640;11.302;2023-07-20T08:51:28;98257.69;;;29.42;64.10
40315;BME280;26021;45.640;11.302;2023-07-20T08:53:54;98152.56;;;28.95;64.83
40315;BME280;26021;45.640;11.302;2023-07-20T08:56:20;98269.72;;;29.68;61.33
40315;BME280;26021;45.640;11.302;2023-07-20T08:58:47;98269.66;;;29.60;60.78
40315;BME280;26021;45.640;11.302;2023-07-20T09:01:14;98274.31;;;29.73;59.53
40315;BME280;26021;45.640;11.302;2023-07-20T09:03:40;98268.28;;;29.49;59.83
40315;BME280;26021;45.640;11.302;2023-07-20T09:06:08;98270.38;;;29.43;60.44
40315;BME280;26021;45.640;11.302;2023-07-20T09:08:38;98272.03;;;29.75;62.62
40315;BME280;26021;45.640;11.302;2023-07-20T09:11:03;98152.06;;;29.16;60.61
40315;BME280;26021;45.640;11.302;2023-07-20T09:13:29;98261.19;;;29.79;59.20
40315;BME280;26021;45.640;11.302;2023-07-20T09:15:55;98252.16;;;29.87;59.15
40315;BME280;26021;45.640;11.302;2023-07-20T09:18:28;98238.41;;;29.95;61.18
40315;BME280;26021;45.640;11.302;2023-07-20T09:20:58;98251.94;;;30.06;58.63
40315;BME280;26021;45.640;11.302;2023-07-20T09:23:36;98226.75;;;29.98;57.64
40315;BME280;26021;45.640;11.302;2023-07-20T09:26:14;98246.69;;;29.95;58.29
40315;BME280;26021;45.640;11.302;2023-07-20T09:28:52;98253.63;;;29.84;57.66
40315;BME280;26021;45.640;11.302;2023-07-20T09:31:20;98252.19;;;29.64;57.61
40315;BME280;26021;45.640;11.302;2023-07-20T09:33:46;98255.69;;;29.56;57.64
40315;BME280;26021;45.640;11.302;2023-07-20T09:36:12;98237.53;;;29.55;60.60
40315;BME280;26021;45.640;11.302;2023-07-20T09:38:42;98239.78;;;29.76;59.41
40315;BME280;26021;45.640;11.302;2023-07-20T09:41:12;98210.28;;;29.76;55.93
40315;BME280;26021;45.640;11.302;2023-07-20T09:43:38;98247.34;;;30.01;56.07
40315;BME280;26021;45.640;11.302;2023-07-20T09:46:04;98247.78;;;29.86;59.26
40315;BME280;26021;45.640;11.302;2023-07-20T09:48:30;98245.72;;;29.69;55.63
40315;BME280;26021;45.640;11.302;2023-07-20T09:50:56;98246.44;;;29.75;58.32
40315;BME280;26021;45.640;11.302;2023-07-20T09:53:24;98249.75;;;29.63;60.89
40315;BME280;26021;45.640;11.302;2023-07-20T09:55:50;98235.97;;;29.63;57.01
40315;BME280;26021;45.640;11.302;2023-07-20T09:58:17;98209.53;;;29.62;56.47
40315;BME280;26021;45.640;11.302;2023-07-20T10:00:44;98249.50;;;30.04;57.22
40315;BME280;26021;45.640;11.302;2023-07-20T10:03:18;98248.00;;;29.98;56.01
40315;BME280;26021;45.640;11.302;2023-07-20T10:05:48;98121.63;;;29.21;53.43
40315;BME280;26021;45.640;11.302;2023-07-20T10:08:19;98247.09;;;30.11;56.13
40315;BME280;26021;45.640;11.302;2023-07-20T10:10:47;98245.56;;;30.45;57.64
40315;BME280;26021;45.640;11.302;2023-07-20T10:13:25;98243.91;;;30.26;54.91
40315;BME280;26021;45.640;11.302;2023-07-20T10:15:54;98245.50;;;30.19;55.52
40315;BME280;26021;45.640;11.302;2023-07-20T10:18:55;98238.97;;;30.06;54.84
40315;BME280;26021;45.640;11.302;2023-07-20T10:21:23;98188.97;;;29.37;54.69
40315;BME280;26021;45.640;11.302;2023-07-20T10:23:49;98235.59;;;29.56;55.17
40315;BME280;26021;45.640;11.302;2023-07-20T10:26:14;98216.09;;;29.44;57.50
40315;BME280;26021;45.640;11.302;2023-07-20T10:28:40;98208.41;;;29.63;56.53
40315;BME280;26021;45.640;11.302;2023-07-20T10:31:08;98234.66;;;29.91;55.89
40315;BME280;26021;45.640;11.302;2023-07-20T10:33:35;98232.25;;;29.98;55.56
40315;BME280;26021;45.640;11.302;2023-07-20T10:36:03;98244.97;;;30.08;55.37
40315;BME280;26021;45.640;11.302;2023-07-20T10:38:52;98237.75;;;30.29;56.56
40315;BME280;26021;45.640;11.302;2023-07-20T10:43:46;98238.69;;;30.16;54.71
40315;BME280;26021;45.640;11.302;2023-07-20T10:46:13;98233.88;;;29.99;56.02
40315;BME280;26021;45.640;11.302;2023-07-20T10:49:00;98229.56;;;30.07;55.95
40315;BME280;26021;45.640;11.302;2023-07-20T10:51:30;98229.72;;;30.02;55.02
40315;BME280;26021;45.640;11.302;2023-07-20T10:54:08;98231.50;;;30.07;55.24
40315;BME280;26021;45.640;11.302;2023-07-20T10:56:33;98225.06;;;30.20;55.75
40315;BME280;26021;45.640;11.302;2023-07-20T10:59:00;98225.25;;;30.23;54.36
40315;BME280;26021;45.640;11.302;2023-07-20T11:01:30;98223.13;;;30.20;55.12
40315;BME280;26021;45.640;11.302;2023-07-20T11:03:58;98218.25;;;30.26;53.49
40315;BME280;26021;45.640;11.302;2023-07-20T11:09:13;98229.28;;;30.26;54.83
40315;BME280;26021;45.640;11.302;2023-07-20T11:14:22;98208.28;;;30.47;54.00
40315;BME280;26021;45.640;11.302;2023-07-20T11:16:49;98216.16;;;30.31;54.83
40315;BME280;26021;45.640;11.302;2023-07-20T11:19:22;98208.81;;;30.66;54.29
40315;BME280;26021;45.640;11.302;2023-07-20T11:21:56;98208.66;;;30.80;54.28
40315;BME280;26021;45.640;11.302;2023-07-20T11:24:22;98167.09;;;30.68;52.82
40315;BME280;26021;45.640;11.302;2023-07-20T11:26:50;98200.00;;;30.47;52.89
40315;BME280;26021;45.640;11.302;2023-07-20T11:29:17;98191.59;;;30.61;53.42
40315;BME280;26021;45.640;11.302;2023-07-20T11:31:44;98199.34;;;30.50;52.37
40315;BME280;26021;45.640;11.302;2023-07-20T11:34:20;98204.16;;;30.36;53.73
40315;BME280;26021;45.640;11.302;2023-07-20T11:36:48;98191.84;;;30.33;51.76
40315;BME280;26021;45.640;11.302;2023-07-20T11:39:18;98190.03;;;30.20;51.36
40315;BME280;26021;45.640;11.302;2023-07-20T11:41:49;98186.16;;;30.30;51.96
40315;BME280;26021;45.640;11.302;2023-07-20T11:44:18;98190.44;;;30.53;49.75
40315;BME280;26021;45.640;11.302;2023-07-20T11:46:44;98185.72;;;30.54;46.61
40315;BME280;26021;45.640;11.302;2023-07-20T11:49:11;98193.47;;;30.43;46.29
40315;BME280;26021;45.640;11.302;2023-07-20T11:51:38;98191.03;;;30.42;46.26
40315;BME280;26021;45.640;11.302;2023-07-20T11:54:06;98189.00;;;30.73;45.66
40315;BME280;26021;45.640;11.302;2023-07-20T11:56:33;98179.44;;;30.71;45.22
40315;BME280;26021;45.640;11.302;2023-07-20T11:58:59;98180.41;;;30.83;44.80
40315;BME280;26021;45.640;11.302;2023-07-20T12:01:27;98173.75;;;30.84;44.61
40315;BME280;26021;45.640;11.302;2023-07-20T12:04:03;98176.97;;;30.95;43.03
40315;BME280;26021;45.640;11.302;2023-07-20T12:06:29;98165.13;;;30.69;39.38
40315;BME280;26021;45.640;11.302;2023-07-20T12:08:58;98166.88;;;30.56;40.43
40315;BME280;26021;45.640;11.302;2023-07-20T12:14:00;98160.09;;;30.62;41.91
40315;BME280;26021;45.640;11.302;2023-07-20T12:16:29;98117.50;;;30.11;42.71
40315;BME280;26021;45.640;11.302;2023-07-20T12:19:08;98159.22;;;30.44;42.18
40315;BME280;26021;45.640;11.302;2023-07-20T12:21:35;98152.63;;;30.62;43.93
40315;BME280;26021;45.640;11.302;2023-07-20T12:24:06;98149.72;;;30.76;43.20
40315;BME280;26021;45.640;11.302;2023-07-20T12:26:32;98159.34;;;30.13;43.57
40315;BME280;26021;45.640;11.302;2023-07-20T12:28:58;98150.13;;;30.26;44.42
40315;BME280;26021;45.640;11.302;2023-07-20T12:31:27;98153.84;;;30.30;44.34
40315;BME280;26021;45.640;11.302;2023-07-20T12:33:53;98148.38;;;30.48;44.71
40315;BME280;26021;45.640;11.302;2023-07-20T12:36:22;98135.69;;;30.29;43.82
40315;BME280;26021;45.640;11.302;2023-07-20T12:38:48;98155.53;;;30.49;45.76
40315;BME280;26021;45.640;11.302;2023-07-20T12:41:13;98147.88;;;30.46;45.60
40315;BME280;26021;45.640;11.302;2023-07-20T12:43:42;98147.44;;;30.61;45.34
40315;BME280;26021;45.640;11.302;2023-07-20T12:46:09;98139.78;;;30.58;43.19
40315;BME280;26021;45.640;11.302;2023-07-20T12:48:37;98150.50;;;31.03;42.15
40315;BME280;26021;45.640;11.302;2023-07-20T12:51:03;98110.75;;;30.78;41.72
40315;BME280;26021;45.640;11.302;2023-07-20T12:53:30;98152.63;;;30.71;41.71
40315;BME280;26021;45.640;11.302;2023-07-20T12:55:56;98148.41;;;30.82;42.14
40315;BME280;26021;45.640;11.302;2023-07-20T12:58:21;98144.81;;;30.90;39.89
40315;BME280;26021;45.640;11.302;2023-07-20T13:00:47;98139.66;;;30.72;40.88
40315;BME280;26021;45.640;11.302;2023-07-20T13:03:12;98135.75;;;30.73;40.31
40315;BME280;26021;45.640;11.302;2023-07-20T13:05:38;98142.56;;;30.84;39.93
40315;BME280;26021;45.640;11.302;2023-07-20T13:08:04;98140.59;;;30.93;40.16
40315;BME280;26021;45.640;11.302;2023-07-20T13:10:31;98125.66;;;30.85;39.96